Station Historical Data
Daily Summary for January 27, 2017 Units:  Both    English   Metric
« Previous Day
Next Day »
Daily Weekly Monthly Yearly Custom
  High: Low: Average:
Temperature: 35.0 °F /  1.7 °C 29.3 °F /  -1.5 °C 32.3 °F /  0.2 °C
Dew Point: 30.1 °F /  -1.1 °C 22.1 °F /  -5.5 °C 25.4 °F /  -3.7 °C
Humidity: 86% 64% 76%
Wind Speed: 15.0mph /  24.1km/h - 7.7mph /  12.4km/h
Wind Gust: 25.0mph /  40.2km/h - -
Wind- - West
Pressure: 29.69 in /  1005.3 hPa 29.62 in /  1002.9 hPa -
Precipitation: 0.00 in /  0 mm    
Historical Graphs
 
 
Tabular Data for January 27, 2017
Time Temperature Dew Point Pressure Wind Wind Speed Wind Gust Humidity Rainfall Rate (Hourly)
00:05 35.0 °F /  1.7 °C 29.8 °F /  -1.2 °C 29.64in /  1003.6hPa West 8.0mph /  12.9km/h 17.0mph /  27.4km/h 81% 0.00in /  0mm
00:14 34.8 °F /  1.6 °C 29.9 °F /  -1.2 °C 29.65in /  1003.9hPa West 10.0mph /  16.1km/h 18.0mph /  29km/h 82% 0.00in /  0mm
00:19 34.7 °F /  1.5 °C 30.1 °F /  -1.1 °C 29.65in /  1003.9hPa WSW 9.0mph /  14.5km/h 13.0mph /  20.9km/h 83% 0.00in /  0mm
00:24 34.6 °F /  1.4 °C 29.7 °F /  -1.3 °C 29.65in /  1003.9hPa WSW 15.0mph /  24.1km/h 19.0mph /  30.6km/h 82% 0.00in /  0mm
00:29 34.6 °F /  1.4 °C 29.7 °F /  -1.3 °C 29.65in /  1003.9hPa West 13.0mph /  20.9km/h 23.0mph /  37km/h 82% 0.00in /  0mm
00:34 34.6 °F /  1.4 °C 29.4 °F /  -1.4 °C 29.65in /  1003.9hPa West 8.0mph /  12.9km/h 23.0mph /  37km/h 81% 0.00in /  0mm
00:44 34.5 °F /  1.4 °C 29.3 °F /  -1.5 °C 29.65in /  1003.9hPa West 9.0mph /  14.5km/h 20.0mph /  32.2km/h 81% 0.00in /  0mm
00:49 34.5 °F /  1.4 °C 29.0 °F /  -1.7 °C 29.65in /  1003.9hPa West 10.0mph /  16.1km/h 20.0mph /  32.2km/h 80% 0.00in /  0mm
00:54 34.4 °F /  1.3 °C 28.2 °F /  -2.1 °C 29.65in /  1003.9hPa NW 6.0mph /  9.7km/h 19.0mph /  30.6km/h 78% 0.00in /  0mm
01:04 34.3 °F /  1.3 °C 28.2 °F /  -2.1 °C 29.65in /  1003.9hPa West 3.0mph /  4.8km/h 16.0mph /  25.7km/h 78% 0.00in /  0mm
01:09 34.1 °F /  1.2 °C 27.6 °F /  -2.4 °C 29.65in /  1003.9hPa WSW 15.0mph /  24.1km/h 23.0mph /  37km/h 77% 0.00in /  0mm
01:14 34.0 °F /  1.1 °C 27.5 °F /  -2.5 °C 29.65in /  1003.9hPa West 9.0mph /  14.5km/h 23.0mph /  37km/h 77% 0.00in /  0mm
01:19 33.8 °F /  1 °C 27.4 °F /  -2.6 °C 29.65in /  1003.9hPa West 8.0mph /  12.9km/h 19.0mph /  30.6km/h 77% 0.00in /  0mm
01:24 33.7 °F /  0.9 °C 27.3 °F /  -2.6 °C 29.65in /  1003.9hPa West 5.0mph /  8km/h 13.0mph /  20.9km/h 77% 0.00in /  0mm
01:29 33.6 °F /  0.9 °C 27.2 °F /  -2.7 °C 29.65in /  1003.9hPa WNW 6.0mph /  9.7km/h 19.0mph /  30.6km/h 77% 0.00in /  0mm
01:34 33.5 °F /  0.8 °C 27.1 °F /  -2.7 °C 29.65in /  1003.9hPa SW 5.0mph /  8km/h 15.0mph /  24.1km/h 77% 0.00in /  0mm
01:39 33.6 °F /  0.9 °C 27.5 °F /  -2.5 °C 29.66in /  1004.3hPa West 4.0mph /  6.4km/h 11.0mph /  17.7km/h 78% 0.00in /  0mm
01:44 33.6 °F /  0.9 °C 27.5 °F /  -2.5 °C 29.66in /  1004.3hPa West 7.0mph /  11.3km/h 16.0mph /  25.7km/h 78% 0.00in /  0mm
01:49 33.6 °F /  0.9 °C 27.5 °F /  -2.5 °C 29.66in /  1004.3hPa West 8.0mph /  12.9km/h 16.0mph /  25.7km/h 78% 0.00in /  0mm
01:54 33.7 °F /  0.9 °C 27.3 °F /  -2.6 °C 29.66in /  1004.3hPa West 10.0mph /  16.1km/h 17.0mph /  27.4km/h 77% 0.00in /  0mm
01:59 33.7 °F /  0.9 °C 27.3 °F /  -2.6 °C 29.65in /  1003.9hPa SW 12.0mph /  19.3km/h 15.0mph /  24.1km/h 77% 0.00in /  0mm
02:04 33.6 °F /  0.9 °C 26.8 °F /  -2.9 °C 29.66in /  1004.3hPa WSW 7.0mph /  11.3km/h 15.0mph /  24.1km/h 76% 0.00in /  0mm
02:14 33.5 °F /  0.8 °C 26.7 °F /  -2.9 °C 29.66in /  1004.3hPa WSW 7.0mph /  11.3km/h 14.0mph /  22.5km/h 76% 0.00in /  0mm
02:19 33.4 °F /  0.8 °C 26.6 °F /  -3 °C 29.66in /  1004.3hPa West 5.0mph /  8km/h 15.0mph /  24.1km/h 76% 0.00in /  0mm
02:24 33.3 °F /  0.7 °C 27.2 °F /  -2.7 °C 29.66in /  1004.3hPa WSW 13.0mph /  20.9km/h 14.0mph /  22.5km/h 78% 0.00in /  0mm
02:29 33.3 °F /  0.7 °C 27.5 °F /  -2.5 °C 29.66in /  1004.3hPa SW 5.0mph /  8km/h 13.0mph /  20.9km/h 79% 0.00in /  0mm
02:34 33.2 °F /  0.7 °C 27.4 °F /  -2.6 °C 29.66in /  1004.3hPa West 6.0mph /  9.7km/h 15.0mph /  24.1km/h 79% 0.00in /  0mm
02:39 33.2 °F /  0.7 °C 27.4 °F /  -2.6 °C 29.66in /  1004.3hPa WSW 7.0mph /  11.3km/h 20.0mph /  32.2km/h 79% 0.00in /  0mm
02:54 33.2 °F /  0.7 °C 27.1 °F /  -2.7 °C 29.66in /  1004.3hPa West 9.0mph /  14.5km/h 20.0mph /  32.2km/h 78% 0.00in /  0mm
02:59 33.2 °F /  0.7 °C 27.1 °F /  -2.7 °C 29.66in /  1004.3hPa West 9.0mph /  14.5km/h 20.0mph /  32.2km/h 78% 0.00in /  0mm
03:04 33.2 °F /  0.7 °C 27.1 °F /  -2.7 °C 29.67in /  1004.6hPa West 7.0mph /  11.3km/h 18.0mph /  29km/h 78% 0.00in /  0mm
03:09 33.2 °F /  0.7 °C 26.8 °F /  -2.9 °C 29.66in /  1004.3hPa West 8.0mph /  12.9km/h 18.0mph /  29km/h 77% 0.00in /  0mm
03:14 33.3 °F /  0.7 °C 26.9 °F /  -2.8 °C 29.66in /  1004.3hPa West 10.0mph /  16.1km/h 15.0mph /  24.1km/h 77% 0.00in /  0mm
03:24 33.2 °F /  0.7 °C 26.5 °F /  -3.1 °C 29.66in /  1004.3hPa SW 10.0mph /  16.1km/h 19.0mph /  30.6km/h 76% 0.00in /  0mm
03:29 33.2 °F /  0.7 °C 26.5 °F /  -3.1 °C 29.66in /  1004.3hPa WSW 12.0mph /  19.3km/h 21.0mph /  33.8km/h 76% 0.00in /  0mm
03:34 33.2 °F /  0.7 °C 26.8 °F /  -2.9 °C 29.66in /  1004.3hPa West 10.0mph /  16.1km/h 21.0mph /  33.8km/h 77% 0.00in /  0mm
03:44 33.0 °F /  0.6 °C 26.9 °F /  -2.8 °C 29.66in /  1004.3hPa West 6.0mph /  9.7km/h 13.0mph /  20.9km/h 78% 0.00in /  0mm
03:49 33.0 °F /  0.6 °C 26.9 °F /  -2.8 °C 29.67in /  1004.6hPa West 8.0mph /  12.9km/h 14.0mph /  22.5km/h 78% 0.00in /  0mm
03:54 32.9 °F /  0.5 °C 26.8 °F /  -2.9 °C 29.66in /  1004.3hPa West 9.0mph /  14.5km/h 18.0mph /  29km/h 78% 0.00in /  0mm
03:59 32.9 °F /  0.5 °C 26.8 °F /  -2.9 °C 29.67in /  1004.6hPa West 8.0mph /  12.9km/h 18.0mph /  29km/h 78% 0.00in /  0mm
04:04 32.9 °F /  0.5 °C 26.8 °F /  -2.9 °C 29.67in /  1004.6hPa West 7.0mph /  11.3km/h 15.0mph /  24.1km/h 78% 0.00in /  0mm
04:09 32.8 °F /  0.4 °C 27.0 °F /  -2.8 °C 29.67in /  1004.6hPa West 5.0mph /  8km/h 14.0mph /  22.5km/h 79% 0.00in /  0mm
04:14 32.7 °F /  0.4 °C 26.9 °F /  -2.8 °C 29.67in /  1004.6hPa NW 8.0mph /  12.9km/h 11.0mph /  17.7km/h 79% 0.00in /  0mm
04:19 32.6 °F /  0.3 °C 27.1 °F /  -2.7 °C 29.67in /  1004.6hPa WNW 7.0mph /  11.3km/h 15.0mph /  24.1km/h 80% 0.00in /  0mm
04:24 32.4 °F /  0.2 °C 27.2 °F /  -2.7 °C 29.67in /  1004.6hPa WNW 8.0mph /  12.9km/h 15.0mph /  24.1km/h 81% 0.00in /  0mm
04:29 32.2 °F /  0.1 °C 27.0 °F /  -2.8 °C 29.67in /  1004.6hPa NW 6.0mph /  9.7km/h 13.0mph /  20.9km/h 81% 0.00in /  0mm
04:34 32.1 °F /  0.1 °C 27.2 °F /  -2.7 °C 29.67in /  1004.6hPa West 3.0mph /  4.8km/h 14.0mph /  22.5km/h 82% 0.00in /  0mm
04:44 31.9 °F /  -0.1 °C 27.0 °F /  -2.8 °C 29.67in /  1004.6hPa West 5.0mph /  8km/h 13.0mph /  20.9km/h 82% 0.00in /  0mm
04:49 31.9 °F /  -0.1 °C 27.0 °F /  -2.8 °C 29.67in /  1004.6hPa WNW 6.0mph /  9.7km/h 13.0mph /  20.9km/h 82% 0.00in /  0mm
04:54 32.0 °F /  0 °C 27.1 °F /  -2.7 °C 29.67in /  1004.6hPa West 6.0mph /  9.7km/h 13.0mph /  20.9km/h 82% 0.00in /  0mm
04:59 31.8 °F /  -0.1 °C 26.6 °F /  -3 °C 29.67in /  1004.6hPa West 6.0mph /  9.7km/h 13.0mph /  20.9km/h 81% 0.00in /  0mm
05:04 31.9 °F /  -0.1 °C 26.7 °F /  -2.9 °C 29.67in /  1004.6hPa West 6.0mph /  9.7km/h 13.0mph /  20.9km/h 81% 0.00in /  0mm
05:14 31.8 °F /  -0.1 °C 26.3 °F /  -3.2 °C 29.67in /  1004.6hPa West 14.0mph /  22.5km/h 16.0mph /  25.7km/h 80% 0.00in /  0mm
05:19 31.8 °F /  -0.1 °C 25.4 °F /  -3.7 °C 29.67in /  1004.6hPa West 9.0mph /  14.5km/h 22.0mph /  35.4km/h 77% 0.00in /  0mm
05:24 31.8 °F /  -0.1 °C 25.1 °F /  -3.8 °C 29.67in /  1004.6hPa WNW 11.0mph /  17.7km/h 22.0mph /  35.4km/h 76% 0.00in /  0mm
05:29 31.8 °F /  -0.1 °C 24.8 °F /  -4 °C 29.67in /  1004.6hPa West 12.0mph /  19.3km/h 20.0mph /  32.2km/h 75% 0.00in /  0mm
05:39 31.8 °F /  -0.1 °C 25.1 °F /  -3.8 °C 29.68in /  1005hPa WNW 9.0mph /  14.5km/h 17.0mph /  27.4km/h 76% 0.00in /  0mm
05:44 31.7 °F /  -0.2 °C 25.0 °F /  -3.9 °C 29.67in /  1004.6hPa WNW 9.0mph /  14.5km/h 15.0mph /  24.1km/h 76% 0.00in /  0mm
05:49 31.7 °F /  -0.2 °C 25.0 °F /  -3.9 °C 29.67in /  1004.6hPa NW 8.0mph /  12.9km/h 17.0mph /  27.4km/h 76% 0.00in /  0mm
05:54 31.5 °F /  -0.3 °C 24.8 °F /  -4 °C 29.67in /  1004.6hPa West 8.0mph /  12.9km/h 17.0mph /  27.4km/h 76% 0.00in /  0mm
05:59 31.4 °F /  -0.3 °C 24.4 °F /  -4.2 °C 29.67in /  1004.6hPa West 9.0mph /  14.5km/h 17.0mph /  27.4km/h 75% 0.00in /  0mm
06:04 31.2 °F /  -0.4 °C 24.2 °F /  -4.3 °C 29.67in /  1004.6hPa WNW 8.0mph /  12.9km/h 17.0mph /  27.4km/h 75% 0.00in /  0mm
06:14 31.0 °F /  -0.6 °C 23.7 °F /  -4.6 °C 29.67in /  1004.6hPa West 8.0mph /  12.9km/h 17.0mph /  27.4km/h 74% 0.00in /  0mm
06:19 30.9 °F /  -0.6 °C 23.6 °F /  -4.7 °C 29.67in /  1004.6hPa West 7.0mph /  11.3km/h 18.0mph /  29km/h 74% 0.00in /  0mm
06:24 30.9 °F /  -0.6 °C 23.6 °F /  -4.7 °C 29.67in /  1004.6hPa West 8.0mph /  12.9km/h 18.0mph /  29km/h 74% 0.00in /  0mm
06:29 30.9 °F /  -0.6 °C 23.3 °F /  -4.8 °C 29.68in /  1005hPa NW 14.0mph /  22.5km/h 17.0mph /  27.4km/h 73% 0.00in /  0mm
06:34 30.8 °F /  -0.7 °C 23.2 °F /  -4.9 °C 29.68in /  1005hPa West 2.0mph /  3.2km/h 13.0mph /  20.9km/h 73% 0.00in /  0mm
06:39 30.8 °F /  -0.7 °C 23.2 °F /  -4.9 °C 29.68in /  1005hPa West 3.0mph /  4.8km/h 13.0mph /  20.9km/h 73% 0.00in /  0mm
06:44 30.6 °F /  -0.8 °C 23.0 °F /  -5 °C 29.68in /  1005hPa West 6.0mph /  9.7km/h 13.0mph /  20.9km/h 73% 0.00in /  0mm
06:49 30.7 °F /  -0.7 °C 23.1 °F /  -4.9 °C 29.68in /  1005hPa West 3.0mph /  4.8km/h 11.0mph /  17.7km/h 73% 0.00in /  0mm
07:04 30.8 °F /  -0.7 °C 23.5 °F /  -4.7 °C 29.68in /  1005hPa West 5.0mph /  8km/h 11.0mph /  17.7km/h 74% 0.00in /  0mm
07:09 30.8 °F /  -0.7 °C 23.5 °F /  -4.7 °C 29.68in /  1005hPa West 5.0mph /  8km/h 12.0mph /  19.3km/h 74% 0.00in /  0mm
07:14 30.9 °F /  -0.6 °C 23.3 °F /  -4.8 °C 29.68in /  1005hPa West 5.0mph /  8km/h 13.0mph /  20.9km/h 73% 0.00in /  0mm
07:19 31.0 °F /  -0.6 °C 23.4 °F /  -4.8 °C 29.68in /  1005hPa West 6.0mph /  9.7km/h 13.0mph /  20.9km/h 73% 0.00in /  0mm
07:24 31.0 °F /  -0.6 °C 23.7 °F /  -4.6 °C 29.69in /  1005.3hPa West 3.0mph /  4.8km/h 11.0mph /  17.7km/h 74% 0.00in /  0mm
07:29 31.0 °F /  -0.6 °C 23.7 °F /  -4.6 °C 29.69in /  1005.3hPa WSW 6.0mph /  9.7km/h 13.0mph /  20.9km/h 74% 0.00in /  0mm
07:34 31.0 °F /  -0.6 °C 23.7 °F /  -4.6 °C 29.69in /  1005.3hPa West 4.0mph /  6.4km/h 9.0mph /  14.5km/h 74% 0.00in /  0mm
07:39 30.9 °F /  -0.6 °C 23.6 °F /  -4.7 °C 29.69in /  1005.3hPa WSW 8.0mph /  12.9km/h 11.0mph /  17.7km/h 74% 0.00in /  0mm
07:44 30.9 °F /  -0.6 °C 23.6 °F /  -4.7 °C 29.69in /  1005.3hPa West 4.0mph /  6.4km/h 11.0mph /  17.7km/h 74% 0.00in /  0mm
07:49 30.9 °F /  -0.6 °C 23.6 °F /  -4.7 °C 29.69in /  1005.3hPa West 7.0mph /  11.3km/h 12.0mph /  19.3km/h 74% 0.00in /  0mm
07:59 30.9 °F /  -0.6 °C 23.6 °F /  -4.7 °C 29.69in /  1005.3hPa West 3.0mph /  4.8km/h 11.0mph /  17.7km/h 74% 0.00in /  0mm
08:14 30.6 °F /  -0.8 °C 23.3 °F /  -4.8 °C 29.69in /  1005.3hPa West 5.0mph /  8km/h 12.0mph /  19.3km/h 74% 0.00in /  0mm
08:19 30.6 °F /  -0.8 °C 23.3 °F /  -4.8 °C 29.69in /  1005.3hPa West 5.0mph /  8km/h 11.0mph /  17.7km/h 74% 0.00in /  0mm
08:24 30.6 °F /  -0.8 °C 23.3 °F /  -4.8 °C 29.69in /  1005.3hPa West 5.0mph /  8km/h 10.0mph /  16.1km/h 74% 0.00in /  0mm
08:29 30.7 °F /  -0.7 °C 23.1 °F /  -4.9 °C 29.69in /  1005.3hPa WSW 5.0mph /  8km/h 15.0mph /  24.1km/h 73% 0.00in /  0mm
08:39 30.9 °F /  -0.6 °C 22.9 °F /  -5.1 °C 29.69in /  1005.3hPa West 4.0mph /  6.4km/h 14.0mph /  22.5km/h 72% 0.00in /  0mm
08:44 31.2 °F /  -0.4 °C 22.9 °F /  -5.1 °C 29.69in /  1005.3hPa WNW 11.0mph /  17.7km/h 17.0mph /  27.4km/h 71% 0.00in /  0mm
08:49 31.6 °F /  -0.2 °C 22.9 °F /  -5.1 °C 29.69in /  1005.3hPa NW 9.0mph /  14.5km/h 18.0mph /  29km/h 70% 0.00in /  0mm
08:54 32.1 °F /  0.1 °C 23.1 °F /  -4.9 °C 29.69in /  1005.3hPa WNW 13.0mph /  20.9km/h 17.0mph /  27.4km/h 69% 0.00in /  0mm
08:59 32.4 °F /  0.2 °C 23.0 °F /  -5 °C 29.69in /  1005.3hPa West 13.0mph /  20.9km/h 16.0mph /  25.7km/h 68% 0.00in /  0mm
09:04 32.5 °F /  0.3 °C 22.4 °F /  -5.3 °C 29.69in /  1005.3hPa West 9.0mph /  14.5km/h 19.0mph /  30.6km/h 66% 0.00in /  0mm
09:09 33.0 °F /  0.6 °C 22.1 °F /  -5.5 °C 29.69in /  1005.3hPa West 9.0mph /  14.5km/h 19.0mph /  30.6km/h 64% 0.00in /  0mm
09:19 33.1 °F /  0.6 °C 23.3 °F /  -4.8 °C 29.69in /  1005.3hPa West 7.0mph /  11.3km/h 17.0mph /  27.4km/h 67% 0.00in /  0mm
09:24 33.0 °F /  0.6 °C 23.2 °F /  -4.9 °C 29.69in /  1005.3hPa West 6.0mph /  9.7km/h 13.0mph /  20.9km/h 67% 0.00in /  0mm
09:29 33.2 °F /  0.7 °C 23.4 °F /  -4.8 °C 29.69in /  1005.3hPa SW 11.0mph /  17.7km/h 15.0mph /  24.1km/h 67% 0.00in /  0mm
09:39 33.2 °F /  0.7 °C 23.1 °F /  -4.9 °C 29.69in /  1005.3hPa West 9.0mph /  14.5km/h 19.0mph /  30.6km/h 66% 0.00in /  0mm
09:44 33.2 °F /  0.7 °C 23.4 °F /  -4.8 °C 29.69in /  1005.3hPa WSW 4.0mph /  6.4km/h 21.0mph /  33.8km/h 67% 0.00in /  0mm
09:49 33.0 °F /  0.6 °C 24.3 °F /  -4.3 °C 29.69in /  1005.3hPa WSW 9.0mph /  14.5km/h 21.0mph /  33.8km/h 70% 0.00in /  0mm
09:54 32.6 °F /  0.3 °C 24.9 °F /  -3.9 °C 29.69in /  1005.3hPa WSW 8.0mph /  12.9km/h 19.0mph /  30.6km/h 73% 0.00in /  0mm
09:59 32.5 °F /  0.3 °C 25.1 °F /  -3.8 °C 29.69in /  1005.3hPa SW 8.0mph /  12.9km/h 14.0mph /  22.5km/h 74% 0.00in /  0mm
10:04 32.6 °F /  0.3 °C 25.6 °F /  -3.6 °C 29.69in /  1005.3hPa SW 6.0mph /  9.7km/h 13.0mph /  20.9km/h 75% 0.00in /  0mm
10:09 32.7 °F /  0.4 °C 25.6 °F /  -3.6 °C 29.69in /  1005.3hPa WNW 3.0mph /  4.8km/h 15.0mph /  24.1km/h 75% 0.00in /  0mm
10:14 32.8 °F /  0.4 °C 25.7 °F /  -3.5 °C 29.69in /  1005.3hPa SW 9.0mph /  14.5km/h 14.0mph /  22.5km/h 75% 0.00in /  0mm
10:24 33.0 °F /  0.6 °C 26.3 °F /  -3.2 °C 29.69in /  1005.3hPa West 5.0mph /  8km/h 17.0mph /  27.4km/h 76% 0.00in /  0mm
10:29 33.1 °F /  0.6 °C 26.4 °F /  -3.1 °C 29.69in /  1005.3hPa West 8.0mph /  12.9km/h 16.0mph /  25.7km/h 76% 0.00in /  0mm
10:34 33.2 °F /  0.7 °C 26.1 °F /  -3.3 °C 29.69in /  1005.3hPa West 4.0mph /  6.4km/h 15.0mph /  24.1km/h 75% 0.00in /  0mm
10:39 33.3 °F /  0.7 °C 26.2 °F /  -3.2 °C 29.69in /  1005.3hPa WNW 8.0mph /  12.9km/h 15.0mph /  24.1km/h 75% 0.00in /  0mm
10:44 33.5 °F /  0.8 °C 26.1 °F /  -3.3 °C 29.69in /  1005.3hPa West 8.0mph /  12.9km/h 18.0mph /  29km/h 74% 0.00in /  0mm
10:49 33.7 °F /  0.9 °C 26.3 °F /  -3.2 °C 29.69in /  1005.3hPa West 8.0mph /  12.9km/h 18.0mph /  29km/h 74% 0.00in /  0mm
10:54 34.0 °F /  1.1 °C 26.3 °F /  -3.2 °C 29.69in /  1005.3hPa West 7.0mph /  11.3km/h 17.0mph /  27.4km/h 73% 0.00in /  0mm
10:59 34.0 °F /  1.1 °C 25.6 °F /  -3.6 °C 29.69in /  1005.3hPa West 8.0mph /  12.9km/h 20.0mph /  32.2km/h 71% 0.00in /  0mm
11:09 34.0 °F /  1.1 °C 25.9 °F /  -3.4 °C 29.69in /  1005.3hPa WSW 5.0mph /  8km/h 19.0mph /  30.6km/h 72% 0.00in /  0mm
11:14 34.4 °F /  1.3 °C 26.3 °F /  -3.2 °C 29.69in /  1005.3hPa West 8.0mph /  12.9km/h 19.0mph /  30.6km/h 72% 0.00in /  0mm
11:19 34.6 °F /  1.4 °C 26.2 °F /  -3.2 °C 29.68in /  1005hPa West 7.0mph /  11.3km/h 14.0mph /  22.5km/h 71% 0.00in /  0mm
11:24 34.3 °F /  1.3 °C 26.9 °F /  -2.8 °C 29.68in /  1005hPa SW 11.0mph /  17.7km/h 17.0mph /  27.4km/h 74% 0.00in /  0mm
11:29 34.0 °F /  1.1 °C 26.9 °F /  -2.8 °C 29.68in /  1005hPa WSW 12.0mph /  19.3km/h 16.0mph /  25.7km/h 75% 0.00in /  0mm
11:34 33.8 °F /  1 °C 27.0 °F /  -2.8 °C 29.68in /  1005hPa West 6.0mph /  9.7km/h 17.0mph /  27.4km/h 76% 0.00in /  0mm
11:44 33.8 °F /  1 °C 27.0 °F /  -2.8 °C 29.68in /  1005hPa West 9.0mph /  14.5km/h 18.0mph /  29km/h 76% 0.00in /  0mm
11:49 33.8 °F /  1 °C 26.4 °F /  -3.1 °C 29.67in /  1004.6hPa West 9.0mph /  14.5km/h 18.0mph /  29km/h 74% 0.00in /  0mm
11:54 34.1 °F /  1.2 °C 26.7 °F /  -2.9 °C 29.67in /  1004.6hPa WSW 9.0mph /  14.5km/h 20.0mph /  32.2km/h 74% 0.00in /  0mm
11:59 34.1 °F /  1.2 °C 25.7 °F /  -3.5 °C 29.67in /  1004.6hPa WSW 9.0mph /  14.5km/h 16.0mph /  25.7km/h 71% 0.00in /  0mm
12:04 34.3 °F /  1.3 °C 25.5 °F /  -3.6 °C 29.67in /  1004.6hPa WSW 7.0mph /  11.3km/h 18.0mph /  29km/h 70% 0.00in /  0mm
12:09 34.2 °F /  1.2 °C 24.7 °F /  -4.1 °C 29.66in /  1004.3hPa WSW 7.0mph /  11.3km/h 20.0mph /  32.2km/h 68% 0.00in /  0mm
12:19 33.8 °F /  1 °C 26.1 °F /  -3.3 °C 29.66in /  1004.3hPa West 8.0mph /  12.9km/h 16.0mph /  25.7km/h 73% 0.00in /  0mm
12:24 33.4 °F /  0.8 °C 26.6 °F /  -3 °C 29.66in /  1004.3hPa WNW 7.0mph /  11.3km/h 13.0mph /  20.9km/h 76% 0.00in /  0mm
12:29 33.5 °F /  0.8 °C 27.1 °F /  -2.7 °C 29.66in /  1004.3hPa West 6.0mph /  9.7km/h 11.0mph /  17.7km/h 77% 0.00in /  0mm
12:34 33.7 °F /  0.9 °C 26.3 °F /  -3.2 °C 29.65in /  1003.9hPa WSW 8.0mph /  12.9km/h 18.0mph /  29km/h 74% 0.00in /  0mm
12:44 34.0 °F /  1.1 °C 25.2 °F /  -3.8 °C 29.65in /  1003.9hPa West 14.0mph /  22.5km/h 20.0mph /  32.2km/h 70% 0.00in /  0mm
12:54 34.5 °F /  1.4 °C 25.4 °F /  -3.7 °C 29.64in /  1003.6hPa West 9.0mph /  14.5km/h 21.0mph /  33.8km/h 69% 0.00in /  0mm
12:59 34.8 °F /  1.6 °C 26.0 °F /  -3.3 °C 29.64in /  1003.6hPa West 9.0mph /  14.5km/h 21.0mph /  33.8km/h 70% 0.00in /  0mm
13:04 34.6 °F /  1.4 °C 26.5 °F /  -3.1 °C 29.64in /  1003.6hPa WSW 9.0mph /  14.5km/h 23.0mph /  37km/h 72% 0.00in /  0mm
13:09 34.4 °F /  1.3 °C 26.3 °F /  -3.2 °C 29.64in /  1003.6hPa West 12.0mph /  19.3km/h 19.0mph /  30.6km/h 72% 0.00in /  0mm
13:14 34.4 °F /  1.3 °C 26.6 °F /  -3 °C 29.63in /  1003.3hPa SW 5.0mph /  8km/h 21.0mph /  33.8km/h 73% 0.00in /  0mm
13:19 34.5 °F /  1.4 °C 26.4 °F /  -3.1 °C 29.63in /  1003.3hPa WSW 9.0mph /  14.5km/h 21.0mph /  33.8km/h 72% 0.00in /  0mm
13:24 34.4 °F /  1.3 °C 26.6 °F /  -3 °C 29.63in /  1003.3hPa WSW 9.0mph /  14.5km/h 19.0mph /  30.6km/h 73% 0.00in /  0mm
13:29 34.4 °F /  1.3 °C 26.6 °F /  -3 °C 29.63in /  1003.3hPa South 11.0mph /  17.7km/h 17.0mph /  27.4km/h 73% 0.00in /  0mm
13:34 34.4 °F /  1.3 °C 26.3 °F /  -3.2 °C 29.63in /  1003.3hPa WSW 14.0mph /  22.5km/h 19.0mph /  30.6km/h 72% 0.00in /  0mm
13:39 34.2 °F /  1.2 °C 26.1 °F /  -3.3 °C 29.62in /  1002.9hPa West 13.0mph /  20.9km/h 19.0mph /  30.6km/h 72% 0.00in /  0mm
13:44 34.0 °F /  1.1 °C 25.9 °F /  -3.4 °C 29.63in /  1003.3hPa WSW 10.0mph /  16.1km/h 19.0mph /  30.6km/h 72% 0.00in /  0mm
13:54 34.2 °F /  1.2 °C 26.1 °F /  -3.3 °C 29.63in /  1003.3hPa WSW 10.0mph /  16.1km/h 21.0mph /  33.8km/h 72% 0.00in /  0mm
13:59 34.3 °F /  1.3 °C 26.2 °F /  -3.2 °C 29.63in /  1003.3hPa West 9.0mph /  14.5km/h 19.0mph /  30.6km/h 72% 0.00in /  0mm
14:04 34.0 °F /  1.1 °C 25.2 °F /  -3.8 °C 29.62in /  1002.9hPa WSW 10.0mph /  16.1km/h 22.0mph /  35.4km/h 70% 0.00in /  0mm
14:09 33.9 °F /  1.1 °C 25.1 °F /  -3.8 °C 29.62in /  1002.9hPa WSW 12.0mph /  19.3km/h 23.0mph /  37km/h 70% 0.00in /  0mm
14:14 33.8 °F /  1 °C 25.4 °F /  -3.7 °C 29.62in /  1002.9hPa WSW 9.0mph /  14.5km/h 23.0mph /  37km/h 71% 0.00in /  0mm
14:19 33.7 °F /  0.9 °C 25.0 °F /  -3.9 °C 29.62in /  1002.9hPa WSW 8.0mph /  12.9km/h 20.0mph /  32.2km/h 70% 0.00in /  0mm
14:24 33.4 °F /  0.8 °C 25.0 °F /  -3.9 °C 29.63in /  1003.3hPa WSW 10.0mph /  16.1km/h 25.0mph /  40.2km/h 71% 0.00in /  0mm
14:29 33.3 °F /  0.7 °C 25.2 °F /  -3.8 °C 29.63in /  1003.3hPa West 11.0mph /  17.7km/h 25.0mph /  40.2km/h 72% 0.00in /  0mm
14:34 33.5 °F /  0.8 °C 25.1 °F /  -3.8 °C 29.62in /  1002.9hPa WNW 7.0mph /  11.3km/h 18.0mph /  29km/h 71% 0.00in /  0mm
14:39 33.4 °F /  0.8 °C 25.0 °F /  -3.9 °C 29.63in /  1003.3hPa WSW 7.0mph /  11.3km/h 17.0mph /  27.4km/h 71% 0.00in /  0mm
14:44 33.4 °F /  0.8 °C 25.3 °F /  -3.7 °C 29.63in /  1003.3hPa North 5.0mph /  8km/h 21.0mph /  33.8km/h 72% 0.00in /  0mm
14:49 33.4 °F /  0.8 °C 25.0 °F /  -3.9 °C 29.63in /  1003.3hPa WSW 9.0mph /  14.5km/h 25.0mph /  40.2km/h 71% 0.00in /  0mm
14:54 33.6 °F /  0.9 °C 25.5 °F /  -3.6 °C 29.62in /  1002.9hPa WSW 14.0mph /  22.5km/h 17.0mph /  27.4km/h 72% 0.00in /  0mm
14:59 33.7 °F /  0.9 °C 25.6 °F /  -3.6 °C 29.63in /  1003.3hPa West 10.0mph /  16.1km/h 17.0mph /  27.4km/h 72% 0.00in /  0mm
15:04 33.7 °F /  0.9 °C 25.3 °F /  -3.7 °C 29.63in /  1003.3hPa WSW 10.0mph /  16.1km/h 20.0mph /  32.2km/h 71% 0.00in /  0mm
15:09 33.6 °F /  0.9 °C 25.5 °F /  -3.6 °C 29.63in /  1003.3hPa WSW 10.0mph /  16.1km/h 21.0mph /  33.8km/h 72% 0.00in /  0mm
15:14 33.4 °F /  0.8 °C 25.7 °F /  -3.5 °C 29.63in /  1003.3hPa SW 10.0mph /  16.1km/h 20.0mph /  32.2km/h 73% 0.00in /  0mm
15:19 33.3 °F /  0.7 °C 25.9 °F /  -3.4 °C 29.63in /  1003.3hPa West 8.0mph /  12.9km/h 16.0mph /  25.7km/h 74% 0.00in /  0mm
15:24 33.2 °F /  0.7 °C 25.5 °F /  -3.6 °C 29.63in /  1003.3hPa SW 10.0mph /  16.1km/h 22.0mph /  35.4km/h 73% 0.00in /  0mm
15:29 33.1 °F /  0.6 °C 26.0 °F /  -3.3 °C 29.63in /  1003.3hPa WSW 9.0mph /  14.5km/h 22.0mph /  35.4km/h 75% 0.00in /  0mm
15:34 33.0 °F /  0.6 °C 25.9 °F /  -3.4 °C 29.63in /  1003.3hPa WSW 9.0mph /  14.5km/h 23.0mph /  37km/h 75% 0.00in /  0mm
15:39 32.9 °F /  0.5 °C 25.8 °F /  -3.4 °C 29.63in /  1003.3hPa WSW 10.0mph /  16.1km/h 23.0mph /  37km/h 75% 0.00in /  0mm
15:44 33.0 °F /  0.6 °C 26.3 °F /  -3.2 °C 29.63in /  1003.3hPa WSW 6.0mph /  9.7km/h 17.0mph /  27.4km/h 76% 0.00in /  0mm
15:49 32.9 °F /  0.5 °C 25.8 °F /  -3.4 °C 29.63in /  1003.3hPa West 10.0mph /  16.1km/h 18.0mph /  29km/h 75% 0.00in /  0mm
15:59 32.8 °F /  0.4 °C 25.7 °F /  -3.5 °C 29.64in /  1003.6hPa WSW 10.0mph /  16.1km/h 22.0mph /  35.4km/h 75% 0.00in /  0mm
16:04 32.7 °F /  0.4 °C 25.6 °F /  -3.6 °C 29.64in /  1003.6hPa WSW 9.0mph /  14.5km/h 20.0mph /  32.2km/h 75% 0.00in /  0mm
16:09 32.6 °F /  0.3 °C 25.9 °F /  -3.4 °C 29.64in /  1003.6hPa WSW 9.0mph /  14.5km/h 19.0mph /  30.6km/h 76% 0.00in /  0mm
16:24 32.5 °F /  0.3 °C 25.5 °F /  -3.6 °C 29.64in /  1003.6hPa WSW 11.0mph /  17.7km/h 17.0mph /  27.4km/h 75% 0.00in /  0mm
16:29 32.5 °F /  0.3 °C 25.5 °F /  -3.6 °C 29.64in /  1003.6hPa SW 10.0mph /  16.1km/h 22.0mph /  35.4km/h 75% 0.00in /  0mm
16:34 32.5 °F /  0.3 °C 25.5 °F /  -3.6 °C 29.64in /  1003.6hPa West 8.0mph /  12.9km/h 22.0mph /  35.4km/h 75% 0.00in /  0mm
16:39 32.5 °F /  0.3 °C 25.1 °F /  -3.8 °C 29.64in /  1003.6hPa SW 5.0mph /  8km/h 14.0mph /  22.5km/h 74% 0.00in /  0mm
16:44 32.5 °F /  0.3 °C 24.8 °F /  -4 °C 29.64in /  1003.6hPa West 9.0mph /  14.5km/h 22.0mph /  35.4km/h 73% 0.00in /  0mm
16:49 32.4 °F /  0.2 °C 24.7 °F /  -4.1 °C 29.64in /  1003.6hPa West 7.0mph /  11.3km/h 18.0mph /  29km/h 73% 0.00in /  0mm
16:59 32.4 °F /  0.2 °C 25.0 °F /  -3.9 °C 29.65in /  1003.9hPa West 6.0mph /  9.7km/h 16.0mph /  25.7km/h 74% 0.00in /  0mm
17:04 32.4 °F /  0.2 °C 24.7 °F /  -4.1 °C 29.64in /  1003.6hPa West 7.0mph /  11.3km/h 22.0mph /  35.4km/h 73% 0.00in /  0mm
17:09 32.4 °F /  0.2 °C 24.4 °F /  -4.2 °C 29.65in /  1003.9hPa West 8.0mph /  12.9km/h 22.0mph /  35.4km/h 72% 0.00in /  0mm
17:14 32.3 °F /  0.2 °C 24.3 °F /  -4.3 °C 29.65in /  1003.9hPa West 7.0mph /  11.3km/h 18.0mph /  29km/h 72% 0.00in /  0mm
17:19 32.3 °F /  0.2 °C 24.3 °F /  -4.3 °C 29.65in /  1003.9hPa West 7.0mph /  11.3km/h 18.0mph /  29km/h 72% 0.00in /  0mm
17:24 32.4 °F /  0.2 °C 24.4 °F /  -4.2 °C 29.65in /  1003.9hPa West 6.0mph /  9.7km/h 19.0mph /  30.6km/h 72% 0.00in /  0mm
17:29 32.3 °F /  0.2 °C 24.3 °F /  -4.3 °C 29.65in /  1003.9hPa WNW 4.0mph /  6.4km/h 16.0mph /  25.7km/h 72% 0.00in /  0mm
17:34 32.3 °F /  0.2 °C 24.3 °F /  -4.3 °C 29.65in /  1003.9hPa West 9.0mph /  14.5km/h 17.0mph /  27.4km/h 72% 0.00in /  0mm
17:39 32.3 °F /  0.2 °C 24.3 °F /  -4.3 °C 29.65in /  1003.9hPa West 8.0mph /  12.9km/h 19.0mph /  30.6km/h 72% 0.00in /  0mm
17:54 32.3 °F /  0.2 °C 24.3 °F /  -4.3 °C 29.66in /  1004.3hPa NW 4.0mph /  6.4km/h 15.0mph /  24.1km/h 72% 0.00in /  0mm
17:59 32.3 °F /  0.2 °C 24.3 °F /  -4.3 °C 29.66in /  1004.3hPa WSW 10.0mph /  16.1km/h 17.0mph /  27.4km/h 72% 0.00in /  0mm
18:04 32.2 °F /  0.1 °C 24.2 °F /  -4.3 °C 29.66in /  1004.3hPa WSW 8.0mph /  12.9km/h 17.0mph /  27.4km/h 72% 0.00in /  0mm
18:09 32.3 °F /  0.2 °C 24.3 °F /  -4.3 °C 29.66in /  1004.3hPa WSW 9.0mph /  14.5km/h 18.0mph /  29km/h 72% 0.00in /  0mm
18:14 32.2 °F /  0.1 °C 24.2 °F /  -4.3 °C 29.66in /  1004.3hPa West 7.0mph /  11.3km/h 18.0mph /  29km/h 72% 0.00in /  0mm
18:19 32.2 °F /  0.1 °C 24.2 °F /  -4.3 °C 29.66in /  1004.3hPa West 7.0mph /  11.3km/h 16.0mph /  25.7km/h 72% 0.00in /  0mm
18:24 32.2 °F /  0.1 °C 24.2 °F /  -4.3 °C 29.66in /  1004.3hPa West 8.0mph /  12.9km/h 17.0mph /  27.4km/h 72% 0.00in /  0mm
18:29 32.1 °F /  0.1 °C 24.4 °F /  -4.2 °C 29.66in /  1004.3hPa West 13.0mph /  20.9km/h 18.0mph /  29km/h 73% 0.00in /  0mm
18:34 32.0 °F /  0 °C 24.3 °F /  -4.3 °C 29.66in /  1004.3hPa West 5.0mph /  8km/h 13.0mph /  20.9km/h 73% 0.00in /  0mm
18:39 31.9 °F /  -0.1 °C 24.2 °F /  -4.3 °C 29.66in /  1004.3hPa West 7.0mph /  11.3km/h 15.0mph /  24.1km/h 73% 0.00in /  0mm
18:44 31.8 °F /  -0.1 °C 24.1 °F /  -4.4 °C 29.66in /  1004.3hPa WNW 9.0mph /  14.5km/h 16.0mph /  25.7km/h 73% 0.00in /  0mm
18:49 31.8 °F /  -0.1 °C 24.1 °F /  -4.4 °C 29.66in /  1004.3hPa West 7.0mph /  11.3km/h 18.0mph /  29km/h 73% 0.00in /  0mm
18:54 31.7 °F /  -0.2 °C 24.0 °F /  -4.4 °C 29.66in /  1004.3hPa WSW 4.0mph /  6.4km/h 17.0mph /  27.4km/h 73% 0.00in /  0mm
19:04 31.7 °F /  -0.2 °C 24.0 °F /  -4.4 °C 29.66in /  1004.3hPa West 5.0mph /  8km/h 13.0mph /  20.9km/h 73% 0.00in /  0mm
19:09 31.6 °F /  -0.2 °C 23.9 °F /  -4.5 °C 29.67in /  1004.6hPa West 8.0mph /  12.9km/h 15.0mph /  24.1km/h 73% 0.00in /  0mm
19:14 31.7 °F /  -0.2 °C 24.0 °F /  -4.4 °C 29.67in /  1004.6hPa West 8.0mph /  12.9km/h 15.0mph /  24.1km/h 73% 0.00in /  0mm
19:19 31.6 °F /  -0.2 °C 23.9 °F /  -4.5 °C 29.67in /  1004.6hPa WSW 7.0mph /  11.3km/h 14.0mph /  22.5km/h 73% 0.00in /  0mm
19:24 31.6 °F /  -0.2 °C 23.9 °F /  -4.5 °C 29.67in /  1004.6hPa West 6.0mph /  9.7km/h 13.0mph /  20.9km/h 73% 0.00in /  0mm
19:29 31.6 °F /  -0.2 °C 23.9 °F /  -4.5 °C 29.67in /  1004.6hPa West 7.0mph /  11.3km/h 16.0mph /  25.7km/h 73% 0.00in /  0mm
19:34 31.6 °F /  -0.2 °C 24.3 °F /  -4.3 °C 29.67in /  1004.6hPa West 6.0mph /  9.7km/h 15.0mph /  24.1km/h 74% 0.00in /  0mm
19:39 31.6 °F /  -0.2 °C 24.3 °F /  -4.3 °C 29.67in /  1004.6hPa West 6.0mph /  9.7km/h 15.0mph /  24.1km/h 74% 0.00in /  0mm
19:44 31.5 °F /  -0.3 °C 24.2 °F /  -4.3 °C 29.67in /  1004.6hPa West 7.0mph /  11.3km/h 14.0mph /  22.5km/h 74% 0.00in /  0mm
19:49 31.5 °F /  -0.3 °C 24.2 °F /  -4.3 °C 29.67in /  1004.6hPa West 11.0mph /  17.7km/h 17.0mph /  27.4km/h 74% 0.00in /  0mm
19:54 31.5 °F /  -0.3 °C 24.2 °F /  -4.3 °C 29.67in /  1004.6hPa West 4.0mph /  6.4km/h 13.0mph /  20.9km/h 74% 0.00in /  0mm
20:04 31.4 °F /  -0.3 °C 24.4 °F /  -4.2 °C 29.67in /  1004.6hPa West 5.0mph /  8km/h 15.0mph /  24.1km/h 75% 0.00in /  0mm
20:09 31.2 °F /  -0.4 °C 24.8 °F /  -4 °C 29.67in /  1004.6hPa West 7.0mph /  11.3km/h 16.0mph /  25.7km/h 77% 0.00in /  0mm
20:14 31.0 °F /  -0.6 °C 24.9 °F /  -3.9 °C 29.67in /  1004.6hPa West 7.0mph /  11.3km/h 16.0mph /  25.7km/h 78% 0.00in /  0mm
20:19 30.8 °F /  -0.7 °C 25.4 °F /  -3.7 °C 29.67in /  1004.6hPa West 3.0mph /  4.8km/h 15.0mph /  24.1km/h 80% 0.00in /  0mm
20:24 30.5 °F /  -0.8 °C 25.4 °F /  -3.7 °C 29.67in /  1004.6hPa West 9.0mph /  14.5km/h 16.0mph /  25.7km/h 81% 0.00in /  0mm
20:29 30.3 °F /  -0.9 °C 25.5 °F /  -3.6 °C 29.67in /  1004.6hPa SW 6.0mph /  9.7km/h 15.0mph /  24.1km/h 82% 0.00in /  0mm
20:34 30.1 °F /  -1.1 °C 25.6 °F /  -3.6 °C 29.67in /  1004.6hPa SW 11.0mph /  17.7km/h 15.0mph /  24.1km/h 83% 0.00in /  0mm
20:39 30.0 °F /  -1.1 °C 25.8 °F /  -3.4 °C 29.67in /  1004.6hPa West 7.0mph /  11.3km/h 15.0mph /  24.1km/h 84% 0.00in /  0mm
20:44 29.8 °F /  -1.2 °C 25.8 °F /  -3.4 °C 29.67in /  1004.6hPa West 7.0mph /  11.3km/h 15.0mph /  24.1km/h 85% 0.00in /  0mm
20:54 29.5 °F /  -1.4 °C 25.8 °F /  -3.4 °C 29.67in /  1004.6hPa West 7.0mph /  11.3km/h 14.0mph /  22.5km/h 86% 0.00in /  0mm
20:59 29.4 °F /  -1.4 °C 25.7 °F /  -3.5 °C 29.67in /  1004.6hPa WSW 8.0mph /  12.9km/h 11.0mph /  17.7km/h 86% 0.00in /  0mm
21:04 29.3 °F /  -1.5 °C 25.6 °F /  -3.6 °C 29.67in /  1004.6hPa WSW 4.0mph /  6.4km/h 13.0mph /  20.9km/h 86% 0.00in /  0mm
21:09 29.3 °F /  -1.5 °C 25.6 °F /  -3.6 °C 29.67in /  1004.6hPa West 7.0mph /  11.3km/h 14.0mph /  22.5km/h 86% 0.00in /  0mm
21:14 29.3 °F /  -1.5 °C 25.6 °F /  -3.6 °C 29.67in /  1004.6hPa WSW 9.0mph /  14.5km/h 13.0mph /  20.9km/h 86% 0.00in /  0mm
21:19 29.3 °F /  -1.5 °C 25.6 °F /  -3.6 °C 29.67in /  1004.6hPa WNW 9.0mph /  14.5km/h 13.0mph /  20.9km/h 86% 0.00in /  0mm
21:24 29.3 °F /  -1.5 °C 25.4 °F /  -3.7 °C 29.67in /  1004.6hPa West 4.0mph /  6.4km/h 11.0mph /  17.7km/h 85% 0.00in /  0mm
21:29 29.3 °F /  -1.5 °C 25.4 °F /  -3.7 °C 29.67in /  1004.6hPa West 6.0mph /  9.7km/h 11.0mph /  17.7km/h 85% 0.00in /  0mm
21:34 29.3 °F /  -1.5 °C 25.4 °F /  -3.7 °C 29.67in /  1004.6hPa West 6.0mph /  9.7km/h 16.0mph /  25.7km/h 85% 0.00in /  0mm
21:39 29.4 °F /  -1.4 °C 25.2 °F /  -3.8 °C 29.67in /  1004.6hPa West 6.0mph /  9.7km/h 16.0mph /  25.7km/h 84% 0.00in /  0mm
21:44 29.5 °F /  -1.4 °C 25.3 °F /  -3.7 °C 29.67in /  1004.6hPa West 6.0mph /  9.7km/h 13.0mph /  20.9km/h 84% 0.00in /  0mm
21:49 29.5 °F /  -1.4 °C 25.0 °F /  -3.9 °C 29.67in /  1004.6hPa West 6.0mph /  9.7km/h 13.0mph /  20.9km/h 83% 0.00in /  0mm
21:54 29.6 °F /  -1.3 °C 24.8 °F /  -4 °C 29.67in /  1004.6hPa West 6.0mph /  9.7km/h 14.0mph /  22.5km/h 82% 0.00in /  0mm
21:59 29.8 °F /  -1.2 °C 25.0 °F /  -3.9 °C 29.67in /  1004.6hPa West 6.0mph /  9.7km/h 14.0mph /  22.5km/h 82% 0.00in /  0mm
22:04 29.8 °F /  -1.2 °C 24.7 °F /  -4.1 °C 29.67in /  1004.6hPa West 10.0mph /  16.1km/h 17.0mph /  27.4km/h 81% 0.00in /  0mm
22:09 29.9 °F /  -1.2 °C 24.8 °F /  -4 °C 29.67in /  1004.6hPa WSW 7.0mph /  11.3km/h 17.0mph /  27.4km/h 81% 0.00in /  0mm
22:19 30.0 °F /  -1.1 °C 24.6 °F /  -4.1 °C 29.67in /  1004.6hPa West 9.0mph /  14.5km/h 12.0mph /  19.3km/h 80% 0.00in /  0mm
22:24 29.9 °F /  -1.2 °C 24.8 °F /  -4 °C 29.67in /  1004.6hPa West 5.0mph /  8km/h 13.0mph /  20.9km/h 81% 0.00in /  0mm
22:34 29.7 °F /  -1.3 °C 24.6 °F /  -4.1 °C 29.67in /  1004.6hPa WNW 9.0mph /  14.5km/h 16.0mph /  25.7km/h 81% 0.00in /  0mm
22:44 29.6 °F /  -1.3 °C 24.5 °F /  -4.2 °C 29.67in /  1004.6hPa West 6.0mph /  9.7km/h 15.0mph /  24.1km/h 81% 0.00in /  0mm
22:49 29.6 °F /  -1.3 °C 24.5 °F /  -4.2 °C 29.67in /  1004.6hPa West 7.0mph /  11.3km/h 15.0mph /  24.1km/h 81% 0.00in /  0mm
22:54 29.6 °F /  -1.3 °C 24.5 °F /  -4.2 °C 29.67in /  1004.6hPa West 8.0mph /  12.9km/h 16.0mph /  25.7km/h 81% 0.00in /  0mm
22:59 29.6 °F /  -1.3 °C 24.5 °F /  -4.2 °C 29.67in /  1004.6hPa West 7.0mph /  11.3km/h 16.0mph /  25.7km/h 81% 0.00in /  0mm
23:04 29.5 °F /  -1.4 °C 24.7 °F /  -4.1 °C 29.66in /  1004.3hPa West 9.0mph /  14.5km/h 11.0mph /  17.7km/h 82% 0.00in /  0mm
23:09 29.4 °F /  -1.4 °C 24.6 °F /  -4.1 °C 29.67in /  1004.6hPa WNW 5.0mph /  8km/h 11.0mph /  17.7km/h 82% 0.00in /  0mm
23:14 29.4 °F /  -1.4 °C 24.6 °F /  -4.1 °C 29.66in /  1004.3hPa West 6.0mph /  9.7km/h 15.0mph /  24.1km/h 82% 0.00in /  0mm
23:19 29.3 °F /  -1.5 °C 24.5 °F /  -4.2 °C 29.66in /  1004.3hPa SW 5.0mph /  8km/h 14.0mph /  22.5km/h 82% 0.00in /  0mm
23:24 29.4 °F /  -1.4 °C 24.6 °F /  -4.1 °C 29.66in /  1004.3hPa West 9.0mph /  14.5km/h 15.0mph /  24.1km/h 82% 0.00in /  0mm
23:29 29.4 °F /  -1.4 °C 24.6 °F /  -4.1 °C 29.66in /  1004.3hPa WSW 4.0mph /  6.4km/h 14.0mph /  22.5km/h 82% 0.00in /  0mm
23:34 29.4 °F /  -1.4 °C 24.3 °F /  -4.3 °C 29.66in /  1004.3hPa WNW 5.0mph /  8km/h 11.0mph /  17.7km/h 81% 0.00in /  0mm
23:39 29.5 °F /  -1.4 °C 24.4 °F /  -4.2 °C 29.66in /  1004.3hPa NNW 7.0mph /  11.3km/h 12.0mph /  19.3km/h 81% 0.00in /  0mm
23:44 29.5 °F /  -1.4 °C 24.4 °F /  -4.2 °C 29.66in /  1004.3hPa West 7.0mph /  11.3km/h 10.0mph /  16.1km/h 81% 0.00in /  0mm
23:49 29.6 °F /  -1.3 °C 24.5 °F /  -4.2 °C 29.66in /  1004.3hPa West 6.0mph /  9.7km/h 12.0mph /  19.3km/h 81% 0.00in /  0mm
23:54 29.6 °F /  -1.3 °C 24.5 °F /  -4.2 °C 29.67in /  1004.6hPa West 6.0mph /  9.7km/h 12.0mph /  19.3km/h 81% 0.00in /  0mm
23:59 29.6 °F /  -1.3 °C 24.5 °F /  -4.2 °C 29.66in /  1004.3hPa WNW 7.0mph /  11.3km/h 12.0mph /  19.3km/h 81% 0.00in /  0mm
Buffalo, New York, USA
Compliments of Weather Underground - 2.25 mb